sensor_id;sensor_type;location;lat;lon;timestamp;P1;durP1;ratioP1;P2;durP2;ratioP2
14510;SDS011;7341;50.930;4.038;2022-09-17T00:01:41;7.30;;;1.83;;
14510;SDS011;7341;50.930;4.038;2022-09-17T00:04:10;6.00;;;1.10;;
14510;SDS011;7341;50.930;4.038;2022-09-17T00:06:36;4.83;;;1.37;;
14510;SDS011;7341;50.930;4.038;2022-09-17T00:09:04;6.03;;;1.50;;
14510;SDS011;7341;50.930;4.038;2022-09-17T00:11:34;3.53;;;0.90;;
14510;SDS011;7341;50.930;4.038;2022-09-17T00:14:03;7.23;;;1.30;;
14510;SDS011;7341;50.930;4.038;2022-09-17T00:16:35;9.47;;;1.20;;
14510;SDS011;7341;50.930;4.038;2022-09-17T00:19:04;7.87;;;1.50;;
14510;SDS011;7341;50.930;4.038;2022-09-17T00:21:33;8.60;;;1.33;;
14510;SDS011;7341;50.930;4.038;2022-09-17T00:24:01;7.50;;;1.30;;
14510;SDS011;7341;50.930;4.038;2022-09-17T00:26:30;6.60;;;1.27;;
14510;SDS011;7341;50.930;4.038;2022-09-17T00:28:58;5.77;;;1.53;;
14510;SDS011;7341;50.930;4.038;2022-09-17T00:31:25;5.27;;;1.50;;
14510;SDS011;7341;50.930;4.038;2022-09-17T00:33:54;8.47;;;1.60;;
14510;SDS011;7341;50.930;4.038;2022-09-17T00:36:21;4.93;;;1.60;;
14510;SDS011;7341;50.930;4.038;2022-09-17T00:38:50;6.83;;;1.57;;
14510;SDS011;7341;50.930;4.038;2022-09-17T00:41:17;7.90;;;1.50;;
14510;SDS011;7341;50.930;4.038;2022-09-17T00:43:46;4.43;;;1.20;;
14510;SDS011;7341;50.930;4.038;2022-09-17T00:46:22;9.10;;;1.88;;
14510;SDS011;7341;50.930;4.038;2022-09-17T00:48:54;3.53;;;1.00;;
14510;SDS011;7341;50.930;4.038;2022-09-17T00:51:24;5.13;;;1.03;;
14510;SDS011;7341;50.930;4.038;2022-09-17T00:53:57;7.70;;;1.60;;
14510;SDS011;7341;50.930;4.038;2022-09-17T00:56:27;8.57;;;1.43;;
14510;SDS011;7341;50.930;4.038;2022-09-17T00:58:57;7.07;;;1.50;;
14510;SDS011;7341;50.930;4.038;2022-09-17T01:01:26;8.40;;;1.53;;
14510;SDS011;7341;50.930;4.038;2022-09-17T01:03:53;8.10;;;1.67;;
14510;SDS011;7341;50.930;4.038;2022-09-17T01:06:22;8.53;;;1.70;;
14510;SDS011;7341;50.930;4.038;2022-09-17T01:09:02;9.87;;;1.90;;
14510;SDS011;7341;50.930;4.038;2022-09-17T01:11:52;7.83;;;1.90;;
14510;SDS011;7341;50.930;4.038;2022-09-17T01:14:38;6.60;;;1.40;;
14510;SDS011;7341;50.930;4.038;2022-09-17T01:17:18;5.13;;;1.90;;
14510;SDS011;7341;50.930;4.038;2022-09-17T01:22:59;9.73;;;2.37;;
14510;SDS011;7341;50.930;4.038;2022-09-17T01:25:47;8.03;;;1.53;;
14510;SDS011;7341;50.930;4.038;2022-09-17T01:28:26;7.07;;;1.70;;
14510;SDS011;7341;50.930;4.038;2022-09-17T01:33:58;10.23;;;1.83;;
14510;SDS011;7341;50.930;4.038;2022-09-17T01:36:35;11.23;;;1.83;;
14510;SDS011;7341;50.930;4.038;2022-09-17T01:39:15;8.23;;;1.90;;
14510;SDS011;7341;50.930;4.038;2022-09-17T01:41:52;11.50;;;1.87;;
14510;SDS011;7341;50.930;4.038;2022-09-17T01:44:26;7.90;;;1.80;;
14510;SDS011;7341;50.930;4.038;2022-09-17T01:47:03;4.07;;;1.63;;
14510;SDS011;7341;50.930;4.038;2022-09-17T01:49:35;7.77;;;1.83;;
14510;SDS011;7341;50.930;4.038;2022-09-17T01:52:04;8.63;;;1.63;;
14510;SDS011;7341;50.930;4.038;2022-09-17T01:54:35;7.37;;;1.80;;
14510;SDS011;7341;50.930;4.038;2022-09-17T01:57:08;8.57;;;1.90;;
14510;SDS011;7341;50.930;4.038;2022-09-17T01:59:43;12.10;;;2.00;;
14510;SDS011;7341;50.930;4.038;2022-09-17T02:02:17;7.80;;;1.57;;
14510;SDS011;7341;50.930;4.038;2022-09-17T02:04:53;6.37;;;2.00;;
14510;SDS011;7341;50.930;4.038;2022-09-17T02:07:30;6.77;;;1.97;;
14510;SDS011;7341;50.930;4.038;2022-09-17T02:10:04;8.25;;;2.10;;
14510;SDS011;7341;50.930;4.038;2022-09-17T02:12:43;6.73;;;1.80;;
14510;SDS011;7341;50.930;4.038;2022-09-17T02:15:18;7.63;;;1.90;;
14510;SDS011;7341;50.930;4.038;2022-09-17T02:17:49;11.40;;;2.63;;
14510;SDS011;7341;50.930;4.038;2022-09-17T02:20:19;7.33;;;1.53;;
14510;SDS011;7341;50.930;4.038;2022-09-17T02:22:54;9.17;;;2.00;;
14510;SDS011;7341;50.930;4.038;2022-09-17T02:25:30;7.20;;;2.10;;
14510;SDS011;7341;50.930;4.038;2022-09-17T02:28:05;10.73;;;2.23;;
14510;SDS011;7341;50.930;4.038;2022-09-17T02:30:37;10.53;;;2.00;;
14510;SDS011;7341;50.930;4.038;2022-09-17T02:35:37;8.90;;;2.10;;
14510;SDS011;7341;50.930;4.038;2022-09-17T02:38:06;7.63;;;2.40;;
14510;SDS011;7341;50.930;4.038;2022-09-17T02:40:34;8.33;;;2.07;;
14510;SDS011;7341;50.930;4.038;2022-09-17T02:43:09;10.67;;;2.30;;
14510;SDS011;7341;50.930;4.038;2022-09-17T02:45:44;13.50;;;1.97;;
14510;SDS011;7341;50.930;4.038;2022-09-17T02:48:34;11.27;;;2.03;;
14510;SDS011;7341;50.930;4.038;2022-09-17T02:53:55;13.77;;;1.83;;
14510;SDS011;7341;50.930;4.038;2022-09-17T02:56:28;11.43;;;1.90;;
14510;SDS011;7341;50.930;4.038;2022-09-17T02:59:11;10.87;;;2.00;;
14510;SDS011;7341;50.930;4.038;2022-09-17T03:01:45;13.00;;;2.33;;
14510;SDS011;7341;50.930;4.038;2022-09-17T03:04:21;15.23;;;2.63;;
14510;SDS011;7341;50.930;4.038;2022-09-17T03:06:50;13.47;;;2.50;;
14510;SDS011;7341;50.930;4.038;2022-09-17T03:09:17;20.93;;;2.10;;
14510;SDS011;7341;50.930;4.038;2022-09-17T03:11:47;9.63;;;1.93;;
14510;SDS011;7341;50.930;4.038;2022-09-17T03:14:20;8.73;;;1.73;;
14510;SDS011;7341;50.930;4.038;2022-09-17T03:16:48;10.37;;;1.93;;
14510;SDS011;7341;50.930;4.038;2022-09-17T03:19:18;12.27;;;2.47;;
14510;SDS011;7341;50.930;4.038;2022-09-17T03:21:46;9.97;;;2.40;;
14510;SDS011;7341;50.930;4.038;2022-09-17T03:24:13;10.27;;;2.03;;
14510;SDS011;7341;50.930;4.038;2022-09-17T03:26:40;13.93;;;1.83;;
14510;SDS011;7341;50.930;4.038;2022-09-17T03:29:07;16.57;;;2.77;;
14510;SDS011;7341;50.930;4.038;2022-09-17T03:31:36;10.90;;;2.63;;
14510;SDS011;7341;50.930;4.038;2022-09-17T03:34:04;17.00;;;2.92;;
14510;SDS011;7341;50.930;4.038;2022-09-17T03:36:31;12.37;;;3.03;;
14510;SDS011;7341;50.930;4.038;2022-09-17T03:39:00;13.73;;;2.37;;
14510;SDS011;7341;50.930;4.038;2022-09-17T03:41:29;14.60;;;2.27;;
14510;SDS011;7341;50.930;4.038;2022-09-17T03:43:57;13.93;;;2.50;;
14510;SDS011;7341;50.930;4.038;2022-09-17T03:46:25;12.23;;;3.07;;
14510;SDS011;7341;50.930;4.038;2022-09-17T03:48:53;18.30;;;2.93;;
14510;SDS011;7341;50.930;4.038;2022-09-17T03:51:21;8.90;;;2.10;;
14510;SDS011;7341;50.930;4.038;2022-09-17T03:53:48;9.80;;;2.07;;
14510;SDS011;7341;50.930;4.038;2022-09-17T03:56:18;13.37;;;2.73;;
14510;SDS011;7341;50.930;4.038;2022-09-17T03:58:51;18.20;;;2.40;;
14510;SDS011;7341;50.930;4.038;2022-09-17T04:01:22;22.93;;;2.43;;
14510;SDS011;7341;50.930;4.038;2022-09-17T04:04:03;12.87;;;2.70;;
14510;SDS011;7341;50.930;4.038;2022-09-17T04:06:32;16.00;;;2.53;;
14510;SDS011;7341;50.930;4.038;2022-09-17T04:09:00;13.07;;;2.67;;
14510;SDS011;7341;50.930;4.038;2022-09-17T04:11:36;18.03;;;3.13;;
14510;SDS011;7341;50.930;4.038;2022-09-17T04:14:05;16.53;;;2.60;;
14510;SDS011;7341;50.930;4.038;2022-09-17T04:16:34;13.03;;;2.30;;
14510;SDS011;7341;50.930;4.038;2022-09-17T04:19:07;9.47;;;2.50;;
14510;SDS011;7341;50.930;4.038;2022-09-17T04:21:39;10.33;;;2.27;;
14510;SDS011;7341;50.930;4.038;2022-09-17T04:24:06;12.07;;;1.93;;
14510;SDS011;7341;50.930;4.038;2022-09-17T04:26:33;11.93;;;2.17;;
14510;SDS011;7341;50.930;4.038;2022-09-17T04:29:07;12.90;;;2.40;;
14510;SDS011;7341;50.930;4.038;2022-09-17T04:31:35;13.00;;;2.03;;
14510;SDS011;7341;50.930;4.038;2022-09-17T04:34:04;14.90;;;2.37;;
14510;SDS011;7341;50.930;4.038;2022-09-17T04:36:32;10.47;;;2.00;;
14510;SDS011;7341;50.930;4.038;2022-09-17T04:38:59;14.07;;;2.63;;
14510;SDS011;7341;50.930;4.038;2022-09-17T04:41:28;10.17;;;2.33;;
14510;SDS011;7341;50.930;4.038;2022-09-17T04:43:58;10.03;;;2.23;;
14510;SDS011;7341;50.930;4.038;2022-09-17T04:46:26;10.40;;;2.03;;
14510;SDS011;7341;50.930;4.038;2022-09-17T04:48:53;9.23;;;2.37;;
14510;SDS011;7341;50.930;4.038;2022-09-17T04:51:26;16.20;;;2.43;;
14510;SDS011;7341;50.930;4.038;2022-09-17T04:53:53;12.33;;;2.40;;
14510;SDS011;7341;50.930;4.038;2022-09-17T04:56:23;11.90;;;2.20;;
14510;SDS011;7341;50.930;4.038;2022-09-17T04:58:50;12.70;;;2.53;;
14510;SDS011;7341;50.930;4.038;2022-09-17T05:01:19;9.00;;;2.37;;
14510;SDS011;7341;50.930;4.038;2022-09-17T05:03:46;15.57;;;2.33;;
14510;SDS011;7341;50.930;4.038;2022-09-17T05:06:16;9.43;;;1.53;;
14510;SDS011;7341;50.930;4.038;2022-09-17T05:08:49;14.87;;;2.13;;
14510;SDS011;7341;50.930;4.038;2022-09-17T05:11:16;12.33;;;2.03;;
14510;SDS011;7341;50.930;4.038;2022-09-17T05:13:43;14.63;;;2.00;;
14510;SDS011;7341;50.930;4.038;2022-09-17T05:16:10;8.07;;;2.13;;
14510;SDS011;7341;50.930;4.038;2022-09-17T05:18:44;8.00;;;1.70;;
14510;SDS011;7341;50.930;4.038;2022-09-17T05:21:13;11.70;;;1.97;;
14510;SDS011;7341;50.930;4.038;2022-09-17T05:23:42;6.33;;;1.50;;
14510;SDS011;7341;50.930;4.038;2022-09-17T05:26:09;11.17;;;1.73;;
14510;SDS011;7341;50.930;4.038;2022-09-17T05:31:06;8.07;;;2.10;;
14510;SDS011;7341;50.930;4.038;2022-09-17T05:33:34;7.57;;;1.87;;
14510;SDS011;7341;50.930;4.038;2022-09-17T05:36:03;5.67;;;1.40;;
14510;SDS011;7341;50.930;4.038;2022-09-17T05:38:30;8.33;;;1.80;;
14510;SDS011;7341;50.930;4.038;2022-09-17T05:40:56;7.40;;;1.60;;
14510;SDS011;7341;50.930;4.038;2022-09-17T05:43:29;10.03;;;1.90;;
14510;SDS011;7341;50.930;4.038;2022-09-17T05:46:02;9.53;;;1.90;;
14510;SDS011;7341;50.930;4.038;2022-09-17T05:48:29;7.53;;;2.27;;
14510;SDS011;7341;50.930;4.038;2022-09-17T05:50:57;7.90;;;1.63;;
14510;SDS011;7341;50.930;4.038;2022-09-17T05:53:25;9.57;;;1.73;;
14510;SDS011;7341;50.930;4.038;2022-09-17T05:55:54;7.88;;;2.10;;
14510;SDS011;7341;50.930;4.038;2022-09-17T05:58:24;6.73;;;1.73;;
14510;SDS011;7341;50.930;4.038;2022-09-17T06:00:51;9.03;;;2.07;;
14510;SDS011;7341;50.930;4.038;2022-09-17T06:03:20;7.57;;;1.93;;
14510;SDS011;7341;50.930;4.038;2022-09-17T06:05:52;11.27;;;3.13;;
14510;SDS011;7341;50.930;4.038;2022-09-17T06:08:20;8.93;;;1.67;;
14510;SDS011;7341;50.930;4.038;2022-09-17T06:10:52;5.47;;;1.67;;
14510;SDS011;7341;50.930;4.038;2022-09-17T06:13:19;7.73;;;1.70;;
14510;SDS011;7341;50.930;4.038;2022-09-17T06:15:51;12.90;;;1.90;;
14510;SDS011;7341;50.930;4.038;2022-09-17T06:18:19;10.70;;;2.70;;
14510;SDS011;7341;50.930;4.038;2022-09-17T06:20:52;6.83;;;1.73;;
14510;SDS011;7341;50.930;4.038;2022-09-17T06:23:20;6.13;;;1.67;;
14510;SDS011;7341;50.930;4.038;2022-09-17T06:25:53;8.82;;;2.40;;
14510;SDS011;7341;50.930;4.038;2022-09-17T06:28:22;10.87;;;2.20;;
14510;SDS011;7341;50.930;4.038;2022-09-17T06:30:50;8.87;;;1.90;;
14510;SDS011;7341;50.930;4.038;2022-09-17T06:33:19;7.70;;;1.60;;
14510;SDS011;7341;50.930;4.038;2022-09-17T06:35:47;4.10;;;1.90;;
14510;SDS011;7341;50.930;4.038;2022-09-17T06:38:14;6.20;;;1.60;;
14510;SDS011;7341;50.930;4.038;2022-09-17T06:40:41;9.90;;;1.90;;
14510;SDS011;7341;50.930;4.038;2022-09-17T06:43:09;6.17;;;1.80;;
14510;SDS011;7341;50.930;4.038;2022-09-17T06:45:36;9.00;;;1.77;;
14510;SDS011;7341;50.930;4.038;2022-09-17T06:48:05;10.03;;;1.47;;
14510;SDS011;7341;50.930;4.038;2022-09-17T06:50:32;11.23;;;1.80;;
14510;SDS011;7341;50.930;4.038;2022-09-17T06:52:59;8.37;;;1.87;;
14510;SDS011;7341;50.930;4.038;2022-09-17T06:55:26;7.50;;;1.53;;
14510;SDS011;7341;50.930;4.038;2022-09-17T06:57:53;4.27;;;1.37;;
14510;SDS011;7341;50.930;4.038;2022-09-17T07:00:25;9.83;;;2.30;;
14510;SDS011;7341;50.930;4.038;2022-09-17T07:02:55;8.23;;;2.57;;
14510;SDS011;7341;50.930;4.038;2022-09-17T07:05:22;6.03;;;1.37;;
14510;SDS011;7341;50.930;4.038;2022-09-17T07:07:49;6.17;;;1.10;;
14510;SDS011;7341;50.930;4.038;2022-09-17T07:10:16;8.13;;;1.77;;
14510;SDS011;7341;50.930;4.038;2022-09-17T07:12:43;2.47;;;1.10;;
14510;SDS011;7341;50.930;4.038;2022-09-17T07:15:10;4.83;;;1.43;;
14510;SDS011;7341;50.930;4.038;2022-09-17T07:17:39;6.13;;;1.50;;
14510;SDS011;7341;50.930;4.038;2022-09-17T07:20:08;4.80;;;1.03;;
14510;SDS011;7341;50.930;4.038;2022-09-17T07:22:37;6.47;;;1.40;;
14510;SDS011;7341;50.930;4.038;2022-09-17T07:25:04;6.63;;;1.53;;
14510;SDS011;7341;50.930;4.038;2022-09-17T07:27:34;8.20;;;2.23;;
14510;SDS011;7341;50.930;4.038;2022-09-17T07:30:00;11.80;;;1.57;;
14510;SDS011;7341;50.930;4.038;2022-09-17T07:32:27;7.13;;;1.47;;
14510;SDS011;7341;50.930;4.038;2022-09-17T07:34:56;6.03;;;1.57;;
14510;SDS011;7341;50.930;4.038;2022-09-17T07:37:23;6.47;;;1.40;;
14510;SDS011;7341;50.930;4.038;2022-09-17T07:39:50;6.53;;;1.77;;
14510;SDS011;7341;50.930;4.038;2022-09-17T07:42:17;8.87;;;1.87;;
14510;SDS011;7341;50.930;4.038;2022-09-17T07:44:45;7.33;;;1.43;;
14510;SDS011;7341;50.930;4.038;2022-09-17T07:47:12;8.03;;;1.57;;
14510;SDS011;7341;50.930;4.038;2022-09-17T07:49:39;5.40;;;1.93;;
14510;SDS011;7341;50.930;4.038;2022-09-17T07:52:07;11.07;;;1.50;;
14510;SDS011;7341;50.930;4.038;2022-09-17T07:54:34;7.00;;;1.33;;
14510;SDS011;7341;50.930;4.038;2022-09-17T07:57:02;3.27;;;1.10;;
14510;SDS011;7341;50.930;4.038;2022-09-17T07:59:29;9.50;;;1.37;;
14510;SDS011;7341;50.930;4.038;2022-09-17T08:01:57;6.60;;;1.30;;
14510;SDS011;7341;50.930;4.038;2022-09-17T08:04:24;5.53;;;1.17;;
14510;SDS011;7341;50.930;4.038;2022-09-17T08:06:51;3.67;;;1.20;;
14510;SDS011;7341;50.930;4.038;2022-09-17T08:09:19;4.13;;;1.17;;
14510;SDS011;7341;50.930;4.038;2022-09-17T08:11:47;7.10;;;1.87;;
14510;SDS011;7341;50.930;4.038;2022-09-17T08:14:14;5.43;;;1.30;;
14510;SDS011;7341;50.930;4.038;2022-09-17T08:16:42;5.13;;;1.10;;
14510;SDS011;7341;50.930;4.038;2022-09-17T08:19:11;3.33;;;1.00;;
14510;SDS011;7341;50.930;4.038;2022-09-17T08:21:38;4.80;;;0.97;;
14510;SDS011;7341;50.930;4.038;2022-09-17T08:24:05;7.07;;;1.10;;
14510;SDS011;7341;50.930;4.038;2022-09-17T08:26:33;2.33;;;0.90;;
14510;SDS011;7341;50.930;4.038;2022-09-17T08:29:00;6.97;;;1.30;;
14510;SDS011;7341;50.930;4.038;2022-09-17T08:31:27;5.90;;;1.97;;
14510;SDS011;7341;50.930;4.038;2022-09-17T08:33:54;4.33;;;1.10;;
14510;SDS011;7341;50.930;4.038;2022-09-17T08:36:22;6.27;;;1.30;;
14510;SDS011;7341;50.930;4.038;2022-09-17T08:38:51;3.73;;;1.13;;
14510;SDS011;7341;50.930;4.038;2022-09-17T08:41:20;8.63;;;1.40;;
14510;SDS011;7341;50.930;4.038;2022-09-17T08:43:54;1.67;;;1.00;;
14510;SDS011;7341;50.930;4.038;2022-09-17T08:46:32;3.10;;;0.97;;
14510;SDS011;7341;50.930;4.038;2022-09-17T08:49:05;2.07;;;0.80;;
14510;SDS011;7341;50.930;4.038;2022-09-17T08:51:41;3.97;;;1.50;;
14510;SDS011;7341;50.930;4.038;2022-09-17T08:54:20;3.73;;;0.93;;
14510;SDS011;7341;50.930;4.038;2022-09-17T08:56:56;6.20;;;1.20;;
14510;SDS011;7341;50.930;4.038;2022-09-17T08:59:35;3.10;;;1.40;;
14510;SDS011;7341;50.930;4.038;2022-09-17T09:02:11;9.30;;;1.13;;
14510;SDS011;7341;50.930;4.038;2022-09-17T09:04:55;6.13;;;1.47;;
14510;SDS011;7341;50.930;4.038;2022-09-17T09:07:26;4.90;;;1.00;;
14510;SDS011;7341;50.930;4.038;2022-09-17T09:10:02;2.77;;;1.40;;
14510;SDS011;7341;50.930;4.038;2022-09-17T09:12:34;4.20;;;1.30;;
14510;SDS011;7341;50.930;4.038;2022-09-17T09:15:14;3.50;;;1.30;;
14510;SDS011;7341;50.930;4.038;2022-09-17T09:17:49;3.93;;;1.10;;
14510;SDS011;7341;50.930;4.038;2022-09-17T09:20:23;4.13;;;1.20;;
14510;SDS011;7341;50.930;4.038;2022-09-17T09:22:58;3.40;;;1.00;;
14510;SDS011;7341;50.930;4.038;2022-09-17T09:25:32;2.43;;;0.70;;
14510;SDS011;7341;50.930;4.038;2022-09-17T09:28:07;4.23;;;1.37;;
14510;SDS011;7341;50.930;4.038;2022-09-17T09:30:47;4.27;;;1.30;;
14510;SDS011;7341;50.930;4.038;2022-09-17T09:33:24;4.30;;;1.20;;
14510;SDS011;7341;50.930;4.038;2022-09-17T09:35:55;4.83;;;1.00;;
14510;SDS011;7341;50.930;4.038;2022-09-17T09:38:24;5.75;;;1.35;;
14510;SDS011;7341;50.930;4.038;2022-09-17T09:40:59;2.20;;;0.93;;
14510;SDS011;7341;50.930;4.038;2022-09-17T09:43:33;4.93;;;1.17;;
14510;SDS011;7341;50.930;4.038;2022-09-17T09:46:15;5.93;;;1.17;;
14510;SDS011;7341;50.930;4.038;2022-09-17T09:48:59;1.83;;;0.73;;
14510;SDS011;7341;50.930;4.038;2022-09-17T09:51:35;2.50;;;0.70;;
14510;SDS011;7341;50.930;4.038;2022-09-17T09:54:17;2.53;;;0.83;;
14510;SDS011;7341;50.930;4.038;2022-09-17T09:56:54;4.13;;;1.20;;
14510;SDS011;7341;50.930;4.038;2022-09-17T09:59:22;5.03;;;1.03;;
14510;SDS011;7341;50.930;4.038;2022-09-17T10:01:52;3.00;;;1.00;;
14510;SDS011;7341;50.930;4.038;2022-09-17T10:04:19;6.10;;;1.10;;
14510;SDS011;7341;50.930;4.038;2022-09-17T10:06:49;0.80;;;0.53;;
14510;SDS011;7341;50.930;4.038;2022-09-17T10:09:17;3.63;;;0.63;;
14510;SDS011;7341;50.930;4.038;2022-09-17T10:11:58;1.90;;;1.13;;
14510;SDS011;7341;50.930;4.038;2022-09-17T10:14:27;4.53;;;0.70;;
14510;SDS011;7341;50.930;4.038;2022-09-17T10:19:45;1.30;;;0.70;;
14510;SDS011;7341;50.930;4.038;2022-09-17T10:22:34;1.93;;;0.97;;
14510;SDS011;7341;50.930;4.038;2022-09-17T10:25:03;3.27;;;1.20;;
14510;SDS011;7341;50.930;4.038;2022-09-17T10:27:32;3.13;;;1.00;;
14510;SDS011;7341;50.930;4.038;2022-09-17T10:30:02;3.33;;;0.90;;
14510;SDS011;7341;50.930;4.038;2022-09-17T10:32:40;3.13;;;0.87;;
14510;SDS011;7341;50.930;4.038;2022-09-17T10:35:23;2.03;;;0.90;;
14510;SDS011;7341;50.930;4.038;2022-09-17T10:37:51;2.17;;;0.90;;
14510;SDS011;7341;50.930;4.038;2022-09-17T10:40:29;2.33;;;0.93;;
14510;SDS011;7341;50.930;4.038;2022-09-17T10:45:55;5.50;;;1.00;;
14510;SDS011;7341;50.930;4.038;2022-09-17T10:48:25;4.73;;;1.13;;
14510;SDS011;7341;50.930;4.038;2022-09-17T10:50:56;3.00;;;1.73;;
14510;SDS011;7341;50.930;4.038;2022-09-17T10:53:24;1.80;;;0.87;;
14510;SDS011;7341;50.930;4.038;2022-09-17T10:55:53;4.10;;;1.27;;
14510;SDS011;7341;50.930;4.038;2022-09-17T10:58:28;2.93;;;1.30;;
14510;SDS011;7341;50.930;4.038;2022-09-17T11:01:09;1.37;;;1.20;;
14510;SDS011;7341;50.930;4.038;2022-09-17T11:06:55;4.33;;;1.13;;
14510;SDS011;7341;50.930;4.038;2022-09-17T11:09:42;4.00;;;1.53;;
14510;SDS011;7341;50.930;4.038;2022-09-17T11:12:27;3.50;;;1.30;;
14510;SDS011;7341;50.930;4.038;2022-09-17T11:15:04;5.67;;;1.27;;
14510;SDS011;7341;50.930;4.038;2022-09-17T11:17:56;5.90;;;1.57;;
14510;SDS011;7341;50.930;4.038;2022-09-17T11:20:40;7.17;;;1.50;;
14510;SDS011;7341;50.930;4.038;2022-09-17T11:23:29;6.53;;;1.43;;
14510;SDS011;7341;50.930;4.038;2022-09-17T11:26:09;5.43;;;1.60;;
14510;SDS011;7341;50.930;4.038;2022-09-17T11:28:48;6.03;;;1.43;;
14510;SDS011;7341;50.930;4.038;2022-09-17T11:31:28;6.93;;;1.27;;
14510;SDS011;7341;50.930;4.038;2022-09-17T11:34:03;3.97;;;1.10;;
14510;SDS011;7341;50.930;4.038;2022-09-17T11:36:52;7.53;;;1.53;;
14510;SDS011;7341;50.930;4.038;2022-09-17T11:39:24;10.00;;;1.73;;
14510;SDS011;7341;50.930;4.038;2022-09-17T11:41:56;7.33;;;1.57;;
14510;SDS011;7341;50.930;4.038;2022-09-17T11:44:27;8.50;;;1.70;;
14510;SDS011;7341;50.930;4.038;2022-09-17T11:46:58;6.97;;;1.63;;
14510;SDS011;7341;50.930;4.038;2022-09-17T11:49:33;4.17;;;1.40;;
14510;SDS011;7341;50.930;4.038;2022-09-17T11:52:10;8.70;;;1.53;;
14510;SDS011;7341;50.930;4.038;2022-09-17T11:54:43;4.17;;;1.37;;
14510;SDS011;7341;50.930;4.038;2022-09-17T11:57:16;5.00;;;1.43;;
14510;SDS011;7341;50.930;4.038;2022-09-17T11:59:48;11.53;;;2.50;;
14510;SDS011;7341;50.930;4.038;2022-09-17T12:02:21;11.47;;;2.07;;
14510;SDS011;7341;50.930;4.038;2022-09-17T12:04:54;6.70;;;1.80;;
14510;SDS011;7341;50.930;4.038;2022-09-17T12:07:29;9.80;;;2.70;;
14510;SDS011;7341;50.930;4.038;2022-09-17T12:10:16;8.13;;;2.30;;
14510;SDS011;7341;50.930;4.038;2022-09-17T12:12:54;5.60;;;2.00;;
14510;SDS011;7341;50.930;4.038;2022-09-17T12:15:25;7.17;;;1.90;;
14510;SDS011;7341;50.930;4.038;2022-09-17T12:17:55;8.30;;;1.73;;
14510;SDS011;7341;50.930;4.038;2022-09-17T12:20:30;6.77;;;2.10;;
14510;SDS011;7341;50.930;4.038;2022-09-17T12:23:03;6.40;;;1.83;;
14510;SDS011;7341;50.930;4.038;2022-09-17T12:25:38;5.53;;;1.30;;
14510;SDS011;7341;50.930;4.038;2022-09-17T12:28:14;8.13;;;1.97;;
14510;SDS011;7341;50.930;4.038;2022-09-17T12:30:48;7.93;;;1.50;;
14510;SDS011;7341;50.930;4.038;2022-09-17T12:33:23;5.13;;;1.50;;
14510;SDS011;7341;50.930;4.038;2022-09-17T12:36:05;7.37;;;1.90;;
14510;SDS011;7341;50.930;4.038;2022-09-17T12:38:49;6.90;;;2.23;;
14510;SDS011;7341;50.930;4.038;2022-09-17T12:41:26;7.43;;;1.43;;
14510;SDS011;7341;50.930;4.038;2022-09-17T12:44:04;9.20;;;2.20;;
14510;SDS011;7341;50.930;4.038;2022-09-17T12:46:45;6.53;;;1.50;;
14510;SDS011;7341;50.930;4.038;2022-09-17T12:49:31;7.17;;;1.90;;
14510;SDS011;7341;50.930;4.038;2022-09-17T12:52:17;5.87;;;1.40;;
14510;SDS011;7341;50.930;4.038;2022-09-17T12:54:58;9.23;;;1.70;;
14510;SDS011;7341;50.930;4.038;2022-09-17T12:57:48;10.02;;;1.83;;
14510;SDS011;7341;50.930;4.038;2022-09-17T13:00:23;8.77;;;1.83;;
14510;SDS011;7341;50.930;4.038;2022-09-17T13:02:52;7.30;;;2.00;;
14510;SDS011;7341;50.930;4.038;2022-09-17T13:08:35;6.67;;;1.80;;
14510;SDS011;7341;50.930;4.038;2022-09-17T13:11:32;10.87;;;2.10;;
14510;SDS011;7341;50.930;4.038;2022-09-17T13:14:16;6.57;;;2.23;;
14510;SDS011;7341;50.930;4.038;2022-09-17T13:16:48;6.17;;;1.67;;
14510;SDS011;7341;50.930;4.038;2022-09-17T13:19:23;7.43;;;1.77;;
14510;SDS011;7341;50.930;4.038;2022-09-17T13:22:00;5.33;;;1.10;;
14510;SDS011;7341;50.930;4.038;2022-09-17T13:24:31;5.13;;;1.42;;
14510;SDS011;7341;50.930;4.038;2022-09-17T13:27:01;7.97;;;2.00;;
14510;SDS011;7341;50.930;4.038;2022-09-17T13:38:16;4.03;;;1.50;;
14510;SDS011;7341;50.930;4.038;2022-09-17T13:40:44;7.33;;;0.97;;
14510;SDS011;7341;50.930;4.038;2022-09-17T13:43:14;4.67;;;1.63;;
14510;SDS011;7341;50.930;4.038;2022-09-17T13:48:35;3.60;;;1.30;;
14510;SDS011;7341;50.930;4.038;2022-09-17T13:54:08;3.77;;;1.23;;
14510;SDS011;7341;50.930;4.038;2022-09-17T13:56:37;7.50;;;1.67;;
14510;SDS011;7341;50.930;4.038;2022-09-17T13:59:09;7.80;;;1.93;;
14510;SDS011;7341;50.930;4.038;2022-09-17T14:01:55;9.97;;;1.87;;
14510;SDS011;7341;50.930;4.038;2022-09-17T14:04:34;5.53;;;1.27;;
14510;SDS011;7341;50.930;4.038;2022-09-17T14:10:27;5.53;;;1.50;;
14510;SDS011;7341;50.930;4.038;2022-09-17T14:13:19;5.60;;;1.37;;
14510;SDS011;7341;50.930;4.038;2022-09-17T14:16:24;7.67;;;1.63;;
14510;SDS011;7341;50.930;4.038;2022-09-17T14:19:23;4.27;;;1.60;;
14510;SDS011;7341;50.930;4.038;2022-09-17T14:21:57;5.40;;;1.50;;
14510;SDS011;7341;50.930;4.038;2022-09-17T14:24:33;5.10;;;1.33;;
14510;SDS011;7341;50.930;4.038;2022-09-17T14:30:00;6.13;;;1.20;;
14510;SDS011;7341;50.930;4.038;2022-09-17T14:32:33;4.97;;;1.53;;
14510;SDS011;7341;50.930;4.038;2022-09-17T14:35:12;7.20;;;1.57;;
14510;SDS011;7341;50.930;4.038;2022-09-17T14:37:46;6.13;;;1.60;;
14510;SDS011;7341;50.930;4.038;2022-09-17T14:40:16;2.07;;;0.93;;
14510;SDS011;7341;50.930;4.038;2022-09-17T14:42:47;3.67;;;1.20;;
14510;SDS011;7341;50.930;4.038;2022-09-17T14:45:18;5.30;;;1.40;;
14510;SDS011;7341;50.930;4.038;2022-09-17T14:47:50;4.23;;;1.00;;
14510;SDS011;7341;50.930;4.038;2022-09-17T14:50:51;3.83;;;0.90;;
14510;SDS011;7341;50.930;4.038;2022-09-17T14:53:19;2.27;;;0.83;;
14510;SDS011;7341;50.930;4.038;2022-09-17T14:55:46;1.80;;;0.77;;
14510;SDS011;7341;50.930;4.038;2022-09-17T14:58:24;2.60;;;0.87;;
14510;SDS011;7341;50.930;4.038;2022-09-17T15:00:56;2.30;;;0.77;;
14510;SDS011;7341;50.930;4.038;2022-09-17T15:03:24;2.23;;;0.70;;
14510;SDS011;7341;50.930;4.038;2022-09-17T15:05:51;3.10;;;0.73;;
14510;SDS011;7341;50.930;4.038;2022-09-17T15:08:20;2.40;;;1.13;;
14510;SDS011;7341;50.930;4.038;2022-09-17T15:10:48;3.87;;;0.70;;
14510;SDS011;7341;50.930;4.038;2022-09-17T15:13:19;4.90;;;1.70;;
14510;SDS011;7341;50.930;4.038;2022-09-17T15:15:54;3.00;;;1.00;;
14510;SDS011;7341;50.930;4.038;2022-09-17T15:18:28;3.23;;;0.80;;
14510;SDS011;7341;50.930;4.038;2022-09-17T15:21:00;2.53;;;0.80;;
14510;SDS011;7341;50.930;4.038;2022-09-17T15:23:29;1.87;;;0.70;;
14510;SDS011;7341;50.930;4.038;2022-09-17T15:25:58;1.80;;;0.70;;
14510;SDS011;7341;50.930;4.038;2022-09-17T15:28:28;2.53;;;0.80;;
14510;SDS011;7341;50.930;4.038;2022-09-17T15:31:00;4.77;;;1.00;;
14510;SDS011;7341;50.930;4.038;2022-09-17T15:33:29;2.40;;;0.70;;
14510;SDS011;7341;50.930;4.038;2022-09-17T15:36:06;0.80;;;0.80;;
14510;SDS011;7341;50.930;4.038;2022-09-17T15:38:40;2.73;;;1.00;;
14510;SDS011;7341;50.930;4.038;2022-09-17T15:41:11;3.70;;;1.40;;
14510;SDS011;7341;50.930;4.038;2022-09-17T15:43:48;4.43;;;0.90;;
14510;SDS011;7341;50.930;4.038;2022-09-17T15:46:24;3.43;;;1.27;;
14510;SDS011;7341;50.930;4.038;2022-09-17T15:48:56;2.60;;;1.00;;
14510;SDS011;7341;50.930;4.038;2022-09-17T15:51:24;5.03;;;1.20;;
14510;SDS011;7341;50.930;4.038;2022-09-17T15:53:53;7.03;;;1.60;;
14510;SDS011;7341;50.930;4.038;2022-09-17T15:56:23;4.77;;;1.33;;
14510;SDS011;7341;50.930;4.038;2022-09-17T15:58:54;3.00;;;1.03;;
14510;SDS011;7341;50.930;4.038;2022-09-17T16:04:29;3.93;;;1.70;;
14510;SDS011;7341;50.930;4.038;2022-09-17T16:07:02;2.00;;;1.20;;
14510;SDS011;7341;50.930;4.038;2022-09-17T16:09:51;2.90;;;1.10;;
14510;SDS011;7341;50.930;4.038;2022-09-17T16:12:19;3.33;;;1.10;;
14510;SDS011;7341;50.930;4.038;2022-09-17T16:14:49;4.60;;;1.47;;
14510;SDS011;7341;50.930;4.038;2022-09-17T16:17:24;9.20;;;1.70;;
14510;SDS011;7341;50.930;4.038;2022-09-17T16:20:07;4.93;;;1.50;;